createdAt,value
2022-11-16T00:00:50.196Z,99550.19
2022-11-16T00:06:01.845Z,99549.17
2022-11-16T00:11:12.729Z,99540.13
2022-11-16T00:16:21.503Z,99529.69
2022-11-16T00:21:30.125Z,99523.52
2022-11-16T00:26:37.814Z,99523.51
2022-11-16T00:31:46.194Z,99518.55
2022-11-16T00:36:54.492Z,99517.36
2022-11-16T00:42:02.125Z,99511.06
2022-11-16T00:47:10.720Z,99509.34
2022-11-16T00:52:18.496Z,99513.38
2022-11-16T00:57:26.449Z,99516.05
2022-11-16T01:02:34.599Z,99510.76
2022-11-16T01:07:43.744Z,99504.78
2022-11-16T01:12:52.890Z,99496.75
2022-11-16T01:18:00.554Z,99499.77
2022-11-16T01:23:08.789Z,99484.65
2022-11-16T01:28:19.206Z,99480.66
2022-11-16T01:33:31.743Z,99483.37
2022-11-16T01:38:39.611Z,99486.73
2022-11-16T01:43:57.118Z,99478.02
2022-11-16T01:49:12.242Z,99472.23
2022-11-16T01:54:20.917Z,99464.73
2022-11-16T01:59:36.572Z,99458.92
2022-11-16T02:04:51.356Z,99453.46
2022-11-16T02:10:18.001Z,99451.10
2022-11-16T02:15:31.128Z,99445.54
2022-11-16T02:20:56.116Z,99446.27
2022-11-16T02:26:26.389Z,99440.33
2022-11-16T02:31:39.003Z,99438.04
2022-11-16T02:36:48.531Z,99439.33
2022-11-16T02:41:58.423Z,99439.91
2022-11-16T02:47:10.528Z,99439.36
2022-11-16T02:52:19.125Z,99433.98
2022-11-16T02:57:45.221Z,99443.27
2022-11-16T03:03:08.430Z,99448.27
2022-11-16T03:08:23.290Z,99451.71
2022-11-16T03:13:35.563Z,99449.05
2022-11-16T03:18:44.871Z,99447.20
2022-11-16T03:23:53.197Z,99449.77
2022-11-16T03:29:08.775Z,99447.27
2022-11-16T03:34:20.980Z,99444.13
2022-11-16T03:39:33.045Z,99440.52
2022-11-16T03:44:43.788Z,99431.34
2022-11-16T03:49:50.888Z,99425.09
2022-11-16T03:54:58.964Z,99420.77
2022-11-16T04:00:10.312Z,99411.52
2022-11-16T04:05:42.385Z,99409.43
2022-11-16T04:11:12.257Z,99409.36
2022-11-16T04:16:36.881Z,99406.71
2022-11-16T04:22:08.506Z,99406.79
2022-11-16T04:27:36.086Z,99399.64
2022-11-16T04:33:01.499Z,99390.66
2022-11-16T04:38:08.640Z,99389.66
2022-11-16T04:43:15.979Z,99397.67
2022-11-16T04:48:23.832Z,99402.77
2022-11-16T04:53:33.290Z,99406.84
2022-11-16T04:59:01.584Z,99397.81
2022-11-16T05:04:09.750Z,99394.74
2022-11-16T05:09:17.855Z,99392.34
2022-11-16T05:14:25.210Z,99389.45
2022-11-16T05:19:51.552Z,99377.83
2022-11-16T05:24:58.896Z,99377.98
2022-11-16T05:30:07.822Z,99375.05
2022-11-16T05:35:15.135Z,99366.16
2022-11-16T05:40:23.102Z,99366.64
2022-11-16T05:45:35.601Z,99362.33
2022-11-16T05:50:43.343Z,99367.60
2022-11-16T05:55:56.700Z,99369.08
2022-11-16T06:01:04.135Z,99363.91
2022-11-16T06:06:12.740Z,99359.95
2022-11-16T06:11:19.981Z,99344.90
2022-11-16T06:16:27.280Z,99343.48
2022-11-16T06:21:34.911Z,99345.29
2022-11-16T06:26:43.463Z,99341.48
2022-11-16T06:31:50.536Z,99338.19
2022-11-16T06:36:57.786Z,99331.69
2022-11-16T06:42:05.302Z,99328.52
2022-11-16T06:47:13.038Z,99323.84
2022-11-16T06:52:20.199Z,99325.10
2022-11-16T06:57:27.555Z,99324.00
2022-11-16T07:02:34.707Z,99337.04
2022-11-16T07:07:42.302Z,99338.98
2022-11-16T07:12:49.415Z,99340.38
2022-11-16T07:18:03.849Z,99343.41
2022-11-16T07:23:14.171Z,99332.96
2022-11-16T07:28:24.697Z,99329.30
2022-11-16T07:33:32.081Z,99333.98
2022-11-16T07:39:04.700Z,99341.55
2022-11-16T07:44:12.355Z,99339.93
2022-11-16T07:49:21.925Z,99338.95
2022-11-16T07:54:31.878Z,99338.49
2022-11-16T07:59:38.960Z,99340.88
2022-11-16T08:04:47.228Z,99341.20
2022-11-16T08:09:54.572Z,99341.50
2022-11-16T08:15:02.295Z,99347.03
2022-11-16T08:20:11.822Z,99346.69
2022-11-16T08:25:19.843Z,99349.60
2022-11-16T08:30:27.364Z,99350.10
2022-11-16T08:35:36.367Z,99342.13
2022-11-16T08:40:43.475Z,99339.23
2022-11-16T08:45:51.546Z,99346.02
2022-11-16T08:51:21.116Z,99353.36
2022-11-16T08:56:33.790Z,99356.93
2022-11-16T09:01:42.421Z,99360.77
2022-11-16T09:06:49.357Z,99370.56
2022-11-16T09:11:57.202Z,99375.52
2022-11-16T09:17:04.634Z,99377.27
2022-11-16T09:22:11.743Z,99380.75
2022-11-16T09:27:22.045Z,99380.86
2022-11-16T09:32:29.020Z,99380.94
2022-11-16T09:37:36.040Z,99384.94
2022-11-16T09:42:58.540Z,99375.39
2022-11-16T09:48:12.249Z,99368.96
2022-11-16T09:53:31.693Z,99368.69
2022-11-16T09:58:45.211Z,99369.02
2022-11-16T10:03:56.740Z,99358.27
2022-11-16T10:09:04.098Z,99348.34
2022-11-16T10:14:25.443Z,99340.87
2022-11-16T10:19:40.369Z,99329.08
2022-11-16T10:24:57.981Z,99320.88
2022-11-16T10:30:14.346Z,99313.81
2022-11-16T10:35:28.646Z,99309.98
2022-11-16T10:40:40.090Z,99308.96
2022-11-16T10:45:52.938Z,99310.27
2022-11-16T10:51:00.188Z,99305.22
2022-11-16T10:56:18.849Z,99299.59
2022-11-16T11:01:37.894Z,99297.96
2022-11-16T11:06:45.770Z,99298.48
2022-11-16T11:12:20.771Z,99296.29
2022-11-16T11:17:28.608Z,99301.20
2022-11-16T11:22:43.144Z,99303.68
2022-11-16T11:27:50.975Z,99299.27
2022-11-16T11:32:59.150Z,99299.86
2022-11-16T11:38:08.444Z,99296.67
2022-11-16T11:43:25.284Z,99295.17
2022-11-16T11:48:47.868Z,99290.59
2022-11-16T11:53:58.733Z,99281.23
2022-11-16T11:59:06.203Z,99274.37
2022-11-16T12:05:04.676Z,99271.02
2022-11-16T12:10:22.503Z,99270.41
2022-11-16T12:15:55.578Z,99265.55
2022-11-16T12:21:12.798Z,99269.61
2022-11-16T12:26:29.494Z,99265.36
2022-11-16T12:31:52.400Z,99256.17
2022-11-16T12:37:05.346Z,99253.02
2022-11-16T12:42:24.610Z,99244.05
2022-11-16T12:47:39.871Z,99246.16
2022-11-16T12:53:10.599Z,99242.94
2022-11-16T12:58:28.530Z,99244.55
2022-11-16T13:03:43.749Z,99243.61
2022-11-16T13:09:04.740Z,99237.20
2022-11-16T13:14:18.796Z,99234.55
2022-11-16T13:19:26.455Z,99239.20
2022-11-16T13:24:51.014Z,99243.02
2022-11-16T13:30:02.923Z,99247.79
2022-11-16T13:35:14.022Z,99247.10
2022-11-16T13:40:27.170Z,99248.86
2022-11-16T13:45:38.999Z,99252.83
2022-11-16T13:50:51.721Z,99252.70
2022-11-16T13:56:01.333Z,99255.41
2022-11-16T14:01:11.005Z,99250.84
2022-11-16T14:06:53.038Z,99250.19
2022-11-16T14:12:19.866Z,99249.85
2022-11-16T14:17:53.816Z,99243.05
2022-11-16T14:23:12.985Z,99244.80
2022-11-16T14:28:44.328Z,99246.23
2022-11-16T14:33:54.431Z,99248.67
2022-11-16T14:39:41.183Z,99242.05
2022-11-16T14:44:49.218Z,99234.66
2022-11-16T14:49:57.443Z,99238.71
2022-11-16T14:55:10.860Z,99239.11
2022-11-16T15:00:25.842Z,99239.52
2022-11-16T15:05:37.678Z,99231.36
2022-11-16T15:10:52.356Z,99226.45
2022-11-16T15:16:16.871Z,99226.22
2022-11-16T15:21:25.688Z,99222.56
2022-11-16T15:26:32.619Z,99223.65
2022-11-16T15:31:42.745Z,99226.06
2022-11-16T15:36:50.307Z,99223.16
2022-11-16T15:42:03.258Z,99222.86
2022-11-16T15:47:13.397Z,99227.64
2022-11-16T15:52:50.423Z,99227.17
2022-11-16T15:58:15.015Z,99231.27
2022-11-16T16:03:25.550Z,99231.95
2022-11-16T16:08:37.938Z,99222.14
2022-11-16T16:13:57.631Z,99225.89
2022-11-16T16:19:09.932Z,99225.73
2022-11-16T16:24:45.134Z,99219.95
2022-11-16T16:29:54.051Z,99228.48
2022-11-16T16:35:02.681Z,99226.33
2022-11-16T16:40:11.814Z,99228.25
2022-11-16T16:45:22.462Z,99216.73
2022-11-16T16:50:29.328Z,99215.80
2022-11-16T16:55:37.706Z,99216.91
2022-11-16T17:00:44.873Z,99221.20
2022-11-16T17:05:53.726Z,99235.72
2022-11-16T17:11:00.688Z,99231.31
2022-11-16T17:16:09.042Z,99231.48
2022-11-16T17:21:15.986Z,99232.70
2022-11-16T17:26:22.994Z,99229.84
2022-11-16T17:31:30.109Z,99228.86
2022-11-16T17:36:37.328Z,99227.20
2022-11-16T17:41:44.393Z,99226.22
2022-11-16T17:46:51.579Z,99234.23
2022-11-16T17:51:58.595Z,99234.28
2022-11-16T17:57:05.589Z,99237.35
2022-11-16T18:02:14.315Z,99238.05
2022-11-16T18:07:21.658Z,99244.03
2022-11-16T18:12:29.240Z,99249.38
2022-11-16T18:17:36.532Z,99250.96
2022-11-16T18:22:44.892Z,99251.49
2022-11-16T18:27:55.151Z,99247.20
2022-11-16T18:33:02.235Z,99245.73
2022-11-16T18:38:13.108Z,99247.84
2022-11-16T18:43:20.061Z,99244.00
2022-11-16T18:48:27.594Z,99239.13
2022-11-16T18:53:35.322Z,99235.80
2022-11-16T18:58:50.398Z,99234.52
2022-11-16T19:03:59.255Z,99231.33
2022-11-16T19:09:09.713Z,99229.34
2022-11-16T19:14:16.982Z,99218.47
2022-11-16T19:19:24.507Z,99219.71
2022-11-16T19:24:31.891Z,99224.34
2022-11-16T19:29:39.011Z,99230.35
2022-11-16T19:34:46.202Z,99226.99
2022-11-16T19:39:53.104Z,99226.90
2022-11-16T19:45:00.416Z,99238.55
2022-11-16T19:50:10.136Z,99241.67
2022-11-16T19:55:17.507Z,99239.64
2022-11-16T20:00:25.042Z,99235.45
2022-11-16T20:05:33.402Z,99230.27
2022-11-16T20:10:40.451Z,99228.42
2022-11-16T20:15:50.185Z,99223.53
2022-11-16T20:21:00.896Z,99233.09
2022-11-16T20:26:09.997Z,99238.71
2022-11-16T20:31:21.307Z,99241.95
2022-11-16T20:36:30.064Z,99247.23
2022-11-16T20:41:37.443Z,99241.13
2022-11-16T20:46:45.354Z,99238.77
2022-11-16T20:51:52.620Z,99236.73
2022-11-16T20:57:00.090Z,99235.72
2022-11-16T21:02:07.234Z,99238.09
2022-11-16T21:07:14.636Z,99242.98
2022-11-16T21:12:50.599Z,99237.86
2022-11-16T21:17:57.725Z,99231.37
2022-11-16T21:23:05.319Z,99227.65
2022-11-16T21:28:12.335Z,99227.33
2022-11-16T21:33:19.404Z,99230.92
2022-11-16T21:38:27.410Z,99226.91
2022-11-16T21:43:36.594Z,99237.64
2022-11-16T21:48:44.551Z,99243.30
2022-11-16T21:53:51.866Z,99240.25
2022-11-16T21:58:59.026Z,99237.89
2022-11-16T22:04:23.640Z,99238.59
2022-11-16T22:09:30.821Z,99240.67
2022-11-16T22:14:38.296Z,99242.41
2022-11-16T22:19:45.870Z,99247.70
2022-11-16T22:24:54.113Z,99244.46
2022-11-16T22:30:02.018Z,99238.91
2022-11-16T22:35:10.499Z,99241.84
2022-11-16T22:40:18.616Z,99245.63
2022-11-16T22:45:26.271Z,99244.95
2022-11-16T22:50:34.232Z,99245.81
2022-11-16T22:55:42.085Z,99249.74
2022-11-16T23:00:49.902Z,99252.13
2022-11-16T23:05:57.652Z,99247.05
2022-11-16T23:11:25.344Z,99240.64
2022-11-16T23:16:33.252Z,99241.50
2022-11-16T23:21:58.106Z,99243.02
2022-11-16T23:27:23.799Z,99240.30
2022-11-16T23:32:31.782Z,99237.58
2022-11-16T23:37:52.754Z,99237.07
2022-11-16T23:43:18.020Z,99233.02
2022-11-16T23:48:25.657Z,99228.45
2022-11-16T23:53:33.770Z,99216.08
2022-11-16T23:58:41.633Z,99214.03
